createdAt,value
2023-02-06T00:00:09.845Z,31.70
2023-02-06T00:02:44.504Z,31.50
2023-02-06T00:05:19.202Z,32.00
2023-02-06T00:07:53.147Z,32.80
2023-02-06T00:10:27.712Z,30.40
2023-02-06T00:13:01.297Z,34.90
2023-02-06T00:15:35.215Z,32.10
2023-02-06T00:18:09.029Z,33.00
2023-02-06T00:20:42.696Z,31.80
2023-02-06T00:23:17.190Z,34.10
2023-02-06T00:25:51.309Z,34.30
2023-02-06T00:28:25.234Z,32.40
2023-02-06T00:30:59.363Z,35.90
2023-02-06T00:33:33.389Z,34.50
2023-02-06T00:36:07.740Z,32.70
2023-02-06T00:38:41.935Z,33.90
2023-02-06T00:41:15.626Z,33.00
2023-02-06T00:43:49.239Z,33.70
2023-02-06T00:46:23.571Z,31.90
2023-02-06T00:48:57.217Z,31.20
2023-02-06T00:51:30.785Z,30.90
2023-02-06T00:54:04.890Z,30.80
2023-02-06T00:56:39.035Z,32.10
2023-02-06T00:59:13.525Z,29.80
2023-02-06T01:01:47.497Z,30.40
2023-02-06T01:04:21.159Z,29.40
2023-02-06T01:06:55.497Z,31.60
2023-02-06T01:09:29.015Z,29.40
2023-02-06T01:12:03.445Z,29.80
2023-02-06T01:14:37.327Z,29.60
2023-02-06T01:17:11.451Z,30.10
2023-02-06T01:19:46.035Z,28.70
2023-02-06T01:22:19.870Z,31.00
2023-02-06T01:24:53.308Z,31.80
2023-02-06T01:27:27.470Z,30.50
2023-02-06T01:30:01.371Z,32.00
2023-02-06T01:32:37.399Z,29.30
2023-02-06T01:35:13.243Z,31.40
2023-02-06T01:37:49.764Z,30.70
2023-02-06T01:40:23.856Z,29.60
2023-02-06T01:42:57.684Z,30.90
2023-02-06T01:45:45.701Z,28.00
2023-02-06T01:50:58.617Z,30.80
2023-02-06T01:53:32.849Z,30.60
2023-02-06T01:56:09.361Z,29.70
2023-02-06T01:58:46.627Z,31.20
2023-02-06T02:01:21.359Z,31.10
2023-02-06T02:03:58.002Z,31.60
2023-02-06T02:06:43.786Z,31.80
2023-02-06T02:09:19.543Z,32.80
2023-02-06T02:11:53.693Z,33.00
2023-02-06T02:14:27.905Z,32.90
2023-02-06T02:17:14.695Z,33.70
2023-02-06T02:20:17.935Z,31.80
2023-02-06T02:23:07.840Z,29.60
2023-02-06T02:26:18.647Z,34.00
2023-02-06T02:29:21.960Z,31.20
2023-02-06T02:32:39.705Z,29.30
2023-02-06T02:35:30.511Z,30.50
2023-02-06T02:38:27.844Z,32.70
2023-02-06T02:41:11.535Z,32.00
2023-02-06T02:43:51.371Z,31.40
2023-02-06T02:46:31.895Z,32.80
2023-02-06T02:49:10.732Z,34.30
2023-02-06T02:52:00.173Z,33.70
2023-02-06T02:54:44.400Z,31.60
2023-02-06T02:57:27.582Z,34.60
2023-02-06T03:00:13.297Z,32.40
2023-02-06T03:02:50.479Z,33.00
2023-02-06T03:05:39.686Z,32.30
2023-02-06T03:08:24.234Z,31.60
2023-02-06T03:11:07.483Z,32.80
2023-02-06T03:13:50.648Z,32.40
2023-02-06T03:16:28.382Z,32.40
2023-02-06T03:19:06.840Z,33.00
2023-02-06T03:21:42.937Z,34.90
2023-02-06T03:24:21.186Z,33.80
2023-02-06T03:26:59.732Z,34.70
2023-02-06T03:29:37.099Z,31.50
2023-02-06T03:32:16.910Z,32.40
2023-02-06T03:35:00.331Z,34.00
2023-02-06T03:37:36.371Z,31.60
2023-02-06T03:42:51.751Z,32.00
2023-02-06T03:45:29.721Z,32.90
2023-02-06T03:48:08.874Z,32.40
2023-02-06T03:50:45.991Z,32.50
2023-02-06T03:53:22.801Z,31.80
2023-02-06T03:56:01.774Z,32.00
2023-02-06T03:58:35.488Z,31.40
2023-02-06T04:01:10.256Z,32.20
2023-02-06T04:03:44.531Z,33.20
2023-02-06T04:06:18.257Z,35.10
2023-02-06T04:09:02.059Z,30.40
2023-02-06T04:11:35.446Z,32.60
2023-02-06T04:14:09.673Z,33.10
2023-02-06T04:16:43.548Z,32.90
2023-02-06T04:19:17.033Z,34.80
2023-02-06T04:21:51.004Z,33.10
2023-02-06T04:24:24.961Z,33.00
2023-02-06T04:26:58.784Z,34.90
2023-02-06T04:29:32.968Z,33.50
2023-02-06T04:32:07.316Z,33.90
2023-02-06T04:34:42.155Z,32.70
2023-02-06T04:37:15.936Z,33.80
2023-02-06T04:39:50.479Z,32.90
2023-02-06T04:42:24.452Z,30.30
2023-02-06T04:44:57.913Z,31.20
2023-02-06T04:47:31.848Z,30.60
2023-02-06T04:50:06.244Z,32.50
2023-02-06T04:52:40.156Z,29.80
2023-02-06T04:55:14.289Z,30.40
2023-02-06T04:57:48.612Z,30.90
2023-02-06T05:00:22.988Z,29.90
2023-02-06T05:02:56.814Z,29.50
2023-02-06T05:05:31.535Z,29.70
2023-02-06T05:08:05.900Z,32.90
2023-02-06T05:10:39.608Z,32.20
2023-02-06T05:13:13.752Z,29.20
2023-02-06T05:15:48.015Z,28.40
2023-02-06T05:18:21.874Z,30.70
2023-02-06T05:20:56.250Z,31.10
2023-02-06T05:23:30.320Z,30.40
2023-02-06T05:26:04.009Z,28.30
2023-02-06T05:28:38.190Z,29.50
2023-02-06T05:31:18.753Z,29.20
2023-02-06T05:33:53.988Z,32.90
2023-02-06T05:36:29.534Z,31.60
2023-02-06T05:39:03.184Z,32.90
2023-02-06T05:41:36.973Z,31.60
2023-02-06T05:44:11.490Z,30.80
2023-02-06T05:46:45.671Z,31.60
2023-02-06T05:49:20.001Z,33.80
2023-02-06T05:51:53.698Z,31.60
2023-02-06T05:54:29.583Z,31.50
2023-02-06T05:57:03.064Z,33.20
2023-02-06T05:59:36.964Z,31.10
2023-02-06T06:02:11.330Z,28.20
2023-02-06T06:04:45.723Z,31.30
2023-02-06T06:07:19.309Z,30.00
2023-02-06T06:09:52.969Z,27.60
2023-02-06T06:12:30.230Z,28.90
2023-02-06T06:15:04.237Z,25.80
2023-02-06T06:17:38.075Z,26.60
2023-02-06T06:20:13.451Z,29.70
2023-02-06T06:22:47.745Z,28.40
2023-02-06T06:25:41.885Z,28.90
2023-02-06T06:28:15.712Z,27.20
2023-02-06T06:30:49.647Z,25.90
2023-02-06T06:33:33.190Z,28.90
2023-02-06T06:36:08.226Z,27.60
2023-02-06T06:38:44.764Z,25.80
2023-02-06T06:41:18.700Z,24.20
2023-02-06T06:43:52.679Z,25.00
2023-02-06T06:46:26.984Z,25.30
2023-02-06T06:49:01.551Z,24.00
2023-02-06T06:51:35.012Z,23.90
2023-02-06T06:54:09.037Z,22.10
2023-02-06T06:56:43.301Z,25.20
2023-02-06T06:59:17.072Z,24.90
2023-02-06T07:01:52.960Z,23.80
2023-02-06T07:04:33.769Z,24.80
2023-02-06T07:07:08.163Z,26.80
2023-02-06T07:09:42.422Z,26.10
2023-02-06T07:12:16.180Z,24.40
2023-02-06T07:14:49.829Z,26.50
2023-02-06T07:17:23.418Z,25.30
2023-02-06T07:19:57.499Z,24.20
2023-02-06T07:22:31.572Z,26.20
2023-02-06T07:25:06.284Z,25.80
2023-02-06T07:27:42.763Z,27.00
2023-02-06T07:30:17.589Z,27.50
2023-02-06T07:32:51.576Z,24.70
2023-02-06T07:35:25.559Z,26.00
2023-02-06T07:37:59.707Z,26.70
2023-02-06T07:40:44.585Z,26.60
2023-02-06T07:43:19.469Z,24.60
2023-02-06T07:45:53.145Z,27.90
2023-02-06T07:48:27.162Z,27.10
2023-02-06T07:51:05.626Z,25.00
2023-02-06T07:53:43.069Z,25.50
2023-02-06T07:56:18.961Z,25.00
2023-02-06T07:58:56.208Z,23.90
2023-02-06T08:01:30.512Z,26.60
2023-02-06T08:04:04.546Z,26.40
2023-02-06T08:06:41.722Z,27.30
2023-02-06T08:09:18.068Z,24.90
2023-02-06T08:11:54.199Z,27.40
2023-02-06T08:14:28.915Z,26.50
2023-02-06T08:17:03.036Z,27.10
2023-02-06T08:19:36.945Z,26.80
2023-02-06T08:22:10.925Z,28.00
2023-02-06T08:24:44.846Z,29.10
2023-02-06T08:27:18.926Z,24.90
2023-02-06T08:29:52.962Z,26.20
2023-02-06T08:32:26.670Z,26.80
2023-02-06T08:35:00.550Z,25.90
2023-02-06T08:37:34.632Z,29.10
2023-02-06T08:40:10.154Z,28.00
2023-02-06T08:42:44.119Z,26.90
2023-02-06T08:45:18.096Z,25.20
2023-02-06T08:47:52.149Z,24.00
2023-02-06T08:50:25.812Z,26.50
2023-02-06T08:53:00.423Z,27.40
2023-02-06T08:55:34.058Z,25.80
2023-02-06T08:58:07.995Z,23.80
2023-02-06T09:00:41.747Z,27.10
2023-02-06T09:03:15.813Z,27.90
2023-02-06T09:05:49.382Z,24.70
2023-02-06T09:08:23.003Z,22.30
2023-02-06T09:10:56.756Z,25.20
2023-02-06T09:13:32.144Z,28.60
2023-02-06T09:16:06.655Z,28.50
2023-02-06T09:18:41.280Z,30.30
2023-02-06T09:21:17.096Z,28.70
2023-02-06T09:23:53.064Z,28.80
2023-02-06T09:26:29.074Z,31.30
2023-02-06T09:29:14.221Z,30.00
2023-02-06T09:31:48.359Z,30.80
2023-02-06T09:34:22.182Z,31.90
2023-02-06T09:36:57.136Z,32.40
2023-02-06T09:39:32.218Z,30.10
2023-02-06T09:42:08.987Z,27.80
2023-02-06T09:44:49.279Z,26.30
2023-02-06T09:47:29.626Z,26.50
2023-02-06T09:50:07.978Z,27.30
2023-02-06T09:52:57.866Z,26.20
2023-02-06T09:55:39.504Z,26.50
2023-02-06T09:58:24.367Z,27.50
2023-02-06T10:01:07.660Z,30.50
2023-02-06T10:03:56.471Z,30.80
2023-02-06T10:06:35.225Z,29.70
2023-02-06T10:09:15.692Z,26.80
2023-02-06T10:11:54.790Z,28.30
2023-02-06T10:14:36.725Z,27.90
2023-02-06T10:17:19.640Z,30.70
2023-02-06T10:20:01.044Z,29.30
2023-02-06T10:22:40.742Z,28.80
2023-02-06T10:25:27.120Z,28.30
2023-02-06T10:28:30.113Z,28.60
2023-02-06T10:31:30.979Z,28.40
2023-02-06T10:34:20.734Z,25.60
2023-02-06T10:37:08.168Z,27.50
2023-02-06T10:39:54.734Z,28.60
2023-02-06T10:42:43.475Z,29.60
2023-02-06T10:45:35.570Z,28.50
2023-02-06T10:48:29.716Z,26.60
2023-02-06T10:51:23.859Z,30.00
2023-02-06T10:54:00.453Z,28.00
2023-02-06T10:56:38.549Z,29.60
2023-02-06T10:59:22.766Z,30.60
2023-02-06T11:02:20.764Z,29.30
2023-02-06T11:05:06.981Z,27.90
2023-02-06T11:07:44.199Z,27.00
2023-02-06T11:10:19.865Z,30.00
2023-02-06T11:13:02.377Z,29.70
2023-02-06T11:15:40.627Z,29.90
2023-02-06T11:18:19.742Z,29.10
2023-02-06T11:20:55.809Z,27.40
2023-02-06T11:23:35.424Z,31.30
2023-02-06T11:26:14.587Z,31.40
2023-02-06T11:28:58.773Z,31.80
2023-02-06T11:31:45.642Z,33.80
2023-02-06T11:34:34.515Z,33.30
2023-02-06T11:37:32.206Z,32.40
2023-02-06T11:40:27.875Z,31.20
2023-02-06T11:43:20.498Z,31.90
2023-02-06T11:46:08.025Z,35.20
2023-02-06T11:48:44.309Z,32.30
2023-02-06T11:51:18.366Z,33.90
2023-02-06T11:54:04.446Z,33.90
2023-02-06T11:56:38.530Z,37.30
2023-02-06T11:59:23.634Z,39.30
2023-02-06T12:02:30.737Z,39.50
2023-02-06T12:05:12.415Z,42.10
2023-02-06T12:07:51.309Z,45.80
2023-02-06T12:10:35.009Z,44.90
2023-02-06T12:13:16.524Z,43.50
2023-02-06T12:15:53.937Z,46.50
2023-02-06T12:18:31.167Z,46.20
2023-02-06T12:21:13.908Z,48.30
2023-02-06T12:23:54.654Z,48.10
2023-02-06T12:26:31.981Z,47.10
2023-02-06T12:29:13.666Z,42.60
2023-02-06T12:31:53.382Z,42.30
2023-02-06T12:34:32.152Z,41.80
2023-02-06T12:39:49.657Z,46.00
2023-02-06T12:42:44.660Z,48.10
2023-02-06T12:45:37.052Z,46.10
2023-02-06T12:48:19.087Z,46.10
2023-02-06T12:51:01.048Z,51.80
2023-02-06T12:53:40.293Z,48.70
2023-02-06T12:56:31.413Z,49.60
2023-02-06T12:59:22.306Z,51.00
2023-02-06T13:02:05.653Z,49.80
2023-02-06T13:04:40.565Z,48.40
2023-02-06T13:07:19.353Z,51.20
2023-02-06T13:10:03.012Z,48.70
2023-02-06T13:12:37.319Z,50.20
2023-02-06T13:15:25.283Z,50.70
2023-02-06T13:17:58.914Z,49.10
2023-02-06T13:20:33.406Z,48.40
2023-02-06T13:23:26.098Z,49.60
2023-02-06T13:26:03.346Z,50.70
2023-02-06T13:29:03.276Z,51.80
2023-02-06T13:31:38.926Z,49.40
2023-02-06T13:34:18.643Z,49.20
2023-02-06T13:36:55.475Z,49.50
2023-02-06T13:39:35.041Z,47.70
2023-02-06T13:42:34.314Z,46.20
2023-02-06T13:45:21.659Z,46.10
2023-02-06T13:48:36.659Z,47.00
2023-02-06T13:51:44.491Z,48.40
2023-02-06T13:54:56.632Z,45.70
2023-02-06T13:57:47.439Z,47.10
2023-02-06T14:00:25.557Z,46.40
2023-02-06T14:03:06.824Z,48.00
2023-02-06T14:05:48.861Z,50.40
2023-02-06T14:08:31.338Z,52.50
2023-02-06T14:11:33.285Z,53.60
2023-02-06T14:14:25.186Z,53.00
2023-02-06T14:17:08.784Z,53.90
2023-02-06T14:19:50.538Z,53.50
2023-02-06T14:22:36.347Z,50.20
2023-02-06T14:25:36.922Z,47.70
2023-02-06T14:28:20.335Z,48.80
2023-02-06T14:31:05.269Z,52.40
2023-02-06T14:34:00.886Z,49.80
2023-02-06T14:37:00.881Z,52.10
2023-02-06T14:39:45.831Z,46.90
2023-02-06T14:42:27.630Z,50.80
2023-02-06T14:45:26.124Z,46.70
2023-02-06T14:48:02.438Z,47.70
2023-02-06T14:50:40.695Z,47.00
2023-02-06T14:53:24.041Z,49.60
2023-02-06T14:56:16.413Z,52.20
2023-02-06T14:58:51.686Z,50.20
2023-02-06T15:01:28.476Z,53.50
2023-02-06T15:04:15.771Z,51.80
2023-02-06T15:07:03.688Z,51.20
2023-02-06T15:09:40.684Z,56.00
2023-02-06T15:12:27.048Z,53.90
2023-02-06T15:15:05.668Z,55.60
2023-02-06T15:20:40.551Z,49.30
2023-02-06T15:23:20.449Z,48.50
2023-02-06T15:26:12.237Z,47.40
2023-02-06T15:28:47.567Z,50.90
2023-02-06T15:31:24.748Z,47.30
2023-02-06T15:34:02.066Z,49.90
2023-02-06T15:36:38.437Z,49.60
2023-02-06T15:39:15.850Z,49.30
2023-02-06T15:42:24.040Z,50.60
2023-02-06T15:45:23.593Z,48.50
2023-02-06T15:47:58.994Z,46.90
2023-02-06T15:50:32.752Z,44.40
2023-02-06T15:53:21.259Z,45.10
2023-02-06T15:55:59.454Z,44.10
2023-02-06T15:58:35.311Z,44.80
2023-02-06T16:01:15.313Z,42.70
2023-02-06T16:03:55.165Z,43.60
2023-02-06T16:06:29.473Z,41.70
2023-02-06T16:09:08.723Z,42.30
2023-02-06T16:11:51.328Z,43.00
2023-02-06T16:14:32.344Z,42.00
2023-02-06T16:17:27.056Z,42.00
2023-02-06T16:20:03.238Z,38.70
2023-02-06T16:22:40.389Z,38.50
2023-02-06T16:25:26.283Z,41.80
2023-02-06T16:28:01.334Z,38.50
2023-02-06T16:30:37.566Z,40.30
2023-02-06T16:33:35.537Z,41.20
2023-02-06T16:36:13.223Z,44.30
2023-02-06T16:38:57.672Z,39.70
2023-02-06T16:41:39.881Z,40.60
2023-02-06T16:44:17.470Z,41.30
2023-02-06T16:46:51.805Z,40.30
2023-02-06T16:49:26.169Z,39.20
2023-02-06T16:52:01.651Z,40.80
2023-02-06T16:54:36.180Z,43.30
2023-02-06T16:57:17.780Z,41.20
2023-02-06T16:59:53.099Z,41.10
2023-02-06T17:02:29.928Z,42.10
2023-02-06T17:05:05.812Z,39.80
2023-02-06T17:07:40.244Z,42.80
2023-02-06T17:10:17.321Z,44.00
2023-02-06T17:12:53.151Z,45.50
2023-02-06T17:15:28.059Z,45.30
2023-02-06T17:18:02.674Z,46.20
2023-02-06T17:20:39.770Z,43.30
2023-02-06T17:23:15.232Z,46.40
2023-02-06T17:25:51.221Z,44.30
2023-02-06T17:28:25.861Z,45.70
2023-02-06T17:31:03.556Z,45.50
2023-02-06T17:33:38.747Z,42.90
2023-02-06T17:36:18.505Z,43.60
2023-02-06T17:38:53.881Z,44.30
2023-02-06T17:41:27.804Z,48.30
2023-02-06T17:44:03.080Z,47.90
2023-02-06T17:46:38.516Z,45.90
2023-02-06T17:49:13.808Z,44.10
2023-02-06T17:51:48.132Z,47.30
2023-02-06T17:54:23.767Z,44.40
2023-02-06T17:56:59.586Z,45.20
2023-02-06T17:59:34.979Z,44.50
2023-02-06T18:02:15.976Z,44.80
2023-02-06T18:04:54.478Z,45.40
2023-02-06T18:07:30.042Z,44.80
2023-02-06T18:10:04.454Z,44.20
2023-02-06T18:12:41.268Z,41.80
2023-02-06T18:15:16.396Z,44.90
2023-02-06T18:17:55.326Z,43.80
2023-02-06T18:20:30.478Z,43.30
2023-02-06T18:23:05.266Z,46.50
2023-02-06T18:25:43.510Z,48.80
2023-02-06T18:28:18.787Z,47.10
2023-02-06T18:30:57.742Z,44.90
2023-02-06T18:33:36.512Z,46.20
2023-02-06T18:36:16.070Z,46.00
2023-02-06T18:38:54.884Z,47.80
2023-02-06T18:41:49.017Z,46.70
2023-02-06T18:44:27.937Z,42.70
2023-02-06T18:47:06.607Z,47.60
2023-02-06T18:49:47.112Z,50.50
2023-02-06T18:52:23.866Z,47.50
2023-02-06T18:55:04.311Z,47.50
2023-02-06T18:57:42.186Z,48.10
2023-02-06T19:00:21.703Z,50.50
2023-02-06T19:03:05.511Z,50.80
2023-02-06T19:05:46.529Z,50.80
2023-02-06T19:08:22.812Z,54.70
2023-02-06T19:11:10.627Z,50.00
2023-02-06T19:13:48.579Z,51.40
2023-02-06T19:16:27.325Z,49.70
2023-02-06T19:19:03.794Z,49.60
2023-02-06T19:21:40.386Z,54.10
2023-02-06T19:24:19.351Z,54.20
2023-02-06T19:27:00.671Z,51.50
2023-02-06T19:29:39.156Z,51.70
2023-02-06T19:32:15.989Z,52.60
2023-02-06T19:34:52.340Z,56.30
2023-02-06T19:37:31.559Z,54.40
2023-02-06T19:40:09.014Z,57.30
2023-02-06T19:42:48.110Z,56.80
2023-02-06T19:45:33.648Z,57.30
2023-02-06T19:48:14.383Z,55.50
2023-02-06T19:51:07.945Z,55.10
2023-02-06T19:54:08.179Z,56.10
2023-02-06T19:56:50.787Z,59.30
2023-02-06T19:59:32.076Z,60.50
2023-02-06T20:02:31.598Z,54.80
2023-02-06T20:05:10.188Z,59.30
2023-02-06T20:07:48.870Z,68.60
2023-02-06T20:10:26.199Z,74.10
2023-02-06T20:15:43.400Z,68.40
2023-02-06T20:18:19.077Z,69.30
2023-02-06T20:20:55.793Z,61.90
2023-02-06T20:23:31.821Z,62.00
2023-02-06T20:26:09.245Z,64.90
2023-02-06T20:28:45.564Z,73.00
2023-02-06T20:31:22.316Z,66.80
2023-02-06T20:34:01.685Z,62.60
2023-02-06T20:36:44.765Z,64.10
2023-02-06T20:39:22.450Z,67.00
2023-02-06T20:41:58.968Z,67.00
2023-02-06T20:44:35.029Z,62.90
2023-02-06T20:47:10.601Z,62.30
2023-02-06T20:49:51.487Z,62.10
2023-02-06T20:52:27.047Z,64.50
2023-02-06T20:55:04.410Z,61.90
2023-02-06T20:57:40.259Z,61.00
2023-02-06T21:00:20.398Z,60.70
2023-02-06T21:02:55.001Z,59.10
2023-02-06T21:05:31.075Z,57.50
2023-02-06T21:08:07.365Z,54.70
2023-02-06T21:10:42.153Z,54.40
2023-02-06T21:13:16.356Z,54.90
2023-02-06T21:15:57.432Z,54.90
2023-02-06T21:18:34.752Z,54.70
2023-02-06T21:21:12.110Z,52.10
2023-02-06T21:23:47.873Z,54.90
2023-02-06T21:26:23.742Z,52.80
2023-02-06T21:28:59.719Z,50.90
2023-02-06T21:31:37.808Z,52.10
2023-02-06T21:34:21.740Z,53.00
2023-02-06T21:36:55.515Z,50.20
2023-02-06T21:39:30.991Z,53.90
2023-02-06T21:42:04.754Z,54.50
2023-02-06T21:44:38.806Z,53.20
2023-02-06T21:47:12.560Z,53.30
2023-02-06T21:49:57.149Z,55.40
2023-02-06T21:52:31.007Z,59.80
2023-02-06T21:55:07.525Z,56.70
2023-02-06T21:57:42.242Z,57.30
2023-02-06T22:00:18.233Z,56.90
2023-02-06T22:02:51.943Z,57.10
2023-02-06T22:05:25.920Z,55.40
2023-02-06T22:07:59.785Z,57.40
2023-02-06T22:10:33.258Z,55.90
2023-02-06T22:13:07.547Z,53.40
2023-02-06T22:15:41.357Z,52.70
2023-02-06T22:18:15.042Z,53.40
2023-02-06T22:20:48.868Z,53.90
2023-02-06T22:23:22.957Z,56.70
2023-02-06T22:25:56.703Z,54.80
2023-02-06T22:28:30.854Z,53.90
2023-02-06T22:31:11.156Z,53.00
2023-02-06T22:33:48.018Z,51.10
2023-02-06T22:36:23.387Z,52.30
2023-02-06T22:38:59.871Z,49.60
2023-02-06T22:41:34.426Z,51.70
2023-02-06T22:44:11.956Z,49.70
2023-02-06T22:46:56.528Z,49.10
2023-02-06T22:49:30.960Z,48.80
2023-02-06T22:52:04.784Z,49.70
2023-02-06T22:54:39.022Z,49.80
2023-02-06T22:57:13.066Z,51.80
2023-02-06T22:59:46.839Z,48.80
2023-02-06T23:02:20.527Z,50.50
2023-02-06T23:04:54.443Z,45.40
2023-02-06T23:07:28.351Z,46.60
2023-02-06T23:10:01.933Z,49.20
2023-02-06T23:12:35.565Z,44.40
2023-02-06T23:15:10.240Z,44.70
2023-02-06T23:17:44.747Z,43.90
2023-02-06T23:20:19.168Z,45.60
2023-02-06T23:22:52.651Z,49.00
2023-02-06T23:25:26.400Z,47.10
2023-02-06T23:28:00.390Z,44.70
2023-02-06T23:30:34.661Z,45.30
2023-02-06T23:33:08.853Z,41.10
2023-02-06T23:35:43.642Z,41.80
2023-02-06T23:38:17.458Z,41.40
2023-02-06T23:40:51.817Z,40.30
2023-02-06T23:43:25.466Z,40.10
2023-02-06T23:46:00.070Z,40.40
2023-02-06T23:48:34.423Z,38.60
2023-02-06T23:51:08.228Z,41.90
2023-02-06T23:53:41.834Z,43.20
2023-02-06T23:56:17.992Z,43.50
2023-02-06T23:58:52.247Z,40.60
